KLFK/LFK METAR and TAF weather

Enter ICAO airport designator
Station Type Date Time Source
KLFK METAR 2022/01/29 10:53 UTC NOAA

KLFK 291053Z AUTO 00000KT 10SM CLR M01/M04 A3041 RMK AO2 SLP297 T10111039


Station Type Date Time Source
KLFK Decoded METAR 2022/01/29 10:53 UTC NOAA

LUFKIN ANGELINA COUNTY AIRPORT , TX, United States (KLFK) 31-14N 94-45W 88M
Jan 29, 2022 - 05:53 AM EST / 2022.01.29 1053 UTC
Wind: Calm:0
Visibility: 10 mile(s):0
Sky conditions: clear
Temperature: 30.0 F (-1.1 C)
Dew Point: 25.0 F (-3.9 C)
Relative Humidity: 81%
Pressure (altimeter): 30.41 in. Hg (1029 hPa)
ob: KLFK 291053Z AUTO 00000KT 10SM CLR M01/M04 A3041 RMK AO2 SLP297 T10111039
cycle: 11

Station Type Date Time Source
KLFK TAF 2022/01/29 12:22 UTC NOAA

TAF KLFK 291120Z 2912/3012 00000KT P6SM SKC
FM291800 22007KT P6SM SKC
FM301000 23006KT P6SM SKC

Example: see airport list